Time;durP1;ratioP1;P1;durP2;ratioP2;P2;SDS_P1;SDS_P2;PMS_P1;PMS_P2;Temp;Humidity;BMP_temperature;BMP_pressure;BME280_temperature;BME280_humidity;BME280_pressure;Samples;Min_cycle;Max_cycle;Signal;HPM_P1;HPM_P2
2023/01/03 00:01:29;;;;;;;2.92;1.02;;;;;;;;;;5011005;28;20032;-60
2023/01/03 00:03:55;;;;;;;5.10;1.20;;;;;;;;;;5010731;28;20022;-60
2023/01/03 00:06:20;;;;;;;3.42;1.00;;;;;;;;;;5017244;28;20028;-60
2023/01/03 00:08:46;;;;;;;2.50;0.90;;;;;;;;;;5027616;28;20029;-60
2023/01/03 00:11:12;;;;;;;2.10;0.88;;;;;;;;;;5028051;28;20041;-61
2023/01/03 00:13:37;;;;;;;3.75;1.00;;;;;;;;;;5010219;28;20418;-60
2023/01/03 00:16:02;;;;;;;2.25;0.80;;;;;;;;;;5015321;28;20150;-61
2023/01/03 00:18:28;;;;;;;2.55;0.90;;;;;;;;;;5028275;28;20041;-61
2023/01/03 00:20:53;;;;;;;3.65;1.05;;;;;;;;;;5032567;28;20143;-60
2023/01/03 00:23:18;;;;;;;2.38;0.70;;;;;;;;;;5027577;28;20441;-60
2023/01/03 00:25:43;;;;;;;2.95;0.80;;;;;;;;;;5020138;28;20045;-60
2023/01/03 00:28:08;;;;;;;2.88;0.85;;;;;;;;;;5039161;28;20079;-60
2023/01/03 00:30:34;;;;;;;2.70;0.80;;;;;;;;;;5035799;28;20472;-60
2023/01/03 00:32:59;;;;;;;2.35;0.75;;;;;;;;;;5023839;28;20380;-60
2023/01/03 00:35:24;;;;;;;3.20;0.90;;;;;;;;;;5027943;28;20056;-60
2023/01/03 00:37:49;;;;;;;2.90;0.90;;;;;;;;;;5030012;28;20473;-60
2023/01/03 00:40:15;;;;;;;3.28;0.80;;;;;;;;;;5033020;28;20591;-60
2023/01/03 00:45:23;;;;;;;2.95;0.90;;;;;;;;;;5024716;28;20416;-60
2023/01/03 00:47:48;;;;;;;2.55;0.70;;;;;;;;;;5018226;28;20034;-60
2023/01/03 00:50:14;;;;;;;2.42;0.80;;;;;;;;;;5027917;28;20095;-60
2023/01/03 00:52:39;;;;;;;2.90;0.90;;;;;;;;;;5021200;28;20116;-60
2023/01/03 00:55:04;;;;;;;3.22;1.20;;;;;;;;;;5017463;28;20465;-60
2023/01/03 00:57:29;;;;;;;3.05;0.90;;;;;;;;;;5023447;28;20021;-60
2023/01/03 00:59:55;;;;;;;4.35;1.10;;;;;;;;;;5029890;28;20473;-62
2023/01/03 01:02:20;;;;;;;3.55;1.00;;;;;;;;;;5031986;28;20052;-61
2023/01/03 01:04:45;;;;;;;3.97;0.95;;;;;;;;;;5035579;28;20033;-60
2023/01/03 01:07:10;;;;;;;4.13;1.10;;;;;;;;;;5018541;28;20021;-60
2023/01/03 01:09:36;;;;;;;5.07;1.20;;;;;;;;;;5031979;28;20104;-60
2023/01/03 01:12:02;;;;;;;5.40;1.30;;;;;;;;;;5033846;28;20095;-60
2023/01/03 01:14:28;;;;;;;4.15;1.30;;;;;;;;;;5033588;28;20068;-61
2023/01/03 01:17:01;;;;;;;5.32;1.42;;;;;;;;;;5023990;28;20118;-61
2023/01/03 01:19:31;;;;;;;4.95;1.20;;;;;;;;;;5032404;28;20040;-61
2023/01/03 01:21:57;;;;;;;4.50;1.15;;;;;;;;;;5029356;28;20038;-61
2023/01/03 01:24:22;;;;;;;4.00;1.23;;;;;;;;;;5025060;28;20479;-60
2023/01/03 01:26:47;;;;;;;4.05;0.80;;;;;;;;;;5036745;28;20559;-60
2023/01/03 01:29:13;;;;;;;2.75;0.75;;;;;;;;;;5024071;28;20496;-62
2023/01/03 01:31:39;;;;;;;2.35;0.70;;;;;;;;;;5026075;28;20029;-61
2023/01/03 01:34:04;;;;;;;3.47;0.80;;;;;;;;;;5026860;28;20026;-59
2023/01/03 01:36:31;;;;;;;2.60;0.85;;;;;;;;;;5026913;28;20021;-59
2023/01/03 01:38:58;;;;;;;2.47;0.80;;;;;;;;;;5030364;28;20484;-60
2023/01/03 01:44:39;;;;;;;2.53;0.82;;;;;;;;;;5019659;28;20095;-61
2023/01/03 01:47:11;;;;;;;4.55;0.93;;;;;;;;;;5029740;28;20022;-61
2023/01/03 01:49:37;;;;;;;2.58;0.85;;;;;;;;;;5014514;28;20088;-60
2023/01/03 01:52:02;;;;;;;2.47;0.90;;;;;;;;;;5018619;28;20480;-60
2023/01/03 01:54:27;;;;;;;3.80;0.90;;;;;;;;;;5030924;28;20041;-61
2023/01/03 01:56:53;;;;;;;2.90;0.90;;;;;;;;;;5032596;28;20090;-60
2023/01/03 01:59:18;;;;;;;3.40;1.05;;;;;;;;;;5019087;28;20110;-61
2023/01/03 02:01:44;;;;;;;2.57;0.83;;;;;;;;;;5027528;28;20030;-61
2023/01/03 02:04:12;;;;;;;3.53;1.10;;;;;;;;;;5017709;28;20120;-60
2023/01/03 02:06:37;;;;;;;2.47;0.90;;;;;;;;;;5012582;28;20022;-65
2023/01/03 02:09:02;;;;;;;3.10;1.00;;;;;;;;;;5027771;28;20104;-61
2023/01/03 02:11:36;;;;;;;3.10;1.00;;;;;;;;;;5017032;28;20022;-61
2023/01/03 02:14:08;;;;;;;3.08;0.90;;;;;;;;;;5022318;28;20084;-60
2023/01/03 02:16:50;;;;;;;2.90;0.93;;;;;;;;;;5022705;28;20029;-60
2023/01/03 02:19:34;;;;;;;3.50;0.90;;;;;;;;;;5014094;28;20053;-60
2023/01/03 02:22:00;;;;;;;;;;;;;;;;;;5019859;28;20025;-61
2023/01/03 02:24:34;;;;;;;4.15;0.98;;;;;;;;;;5013526;28;19909;-60
2023/01/03 02:27:28;;;;;;;3.28;1.13;;;;;;;;;;5020946;28;20396;-61
2023/01/03 02:30:03;;;;;;;4.55;1.15;;;;;;;;;;5025493;28;20033;-61
2023/01/03 02:32:34;;;;;;;2.47;0.82;;;;;;;;;;5030260;28;20053;-60
2023/01/03 02:34:59;;;;;;;3.78;1.00;;;;;;;;;;5021348;28;20041;-60
2023/01/03 02:37:35;;;;;;;3.25;1.00;;;;;;;;;;5015759;28;20117;-61
2023/01/03 02:40:30;;;;;;;3.47;1.00;;;;;;;;;;5026550;28;20029;-62
2023/01/03 02:43:01;;;;;;;2.70;0.82;;;;;;;;;;5015565;28;20029;-60
2023/01/03 02:45:47;;;;;;;2.75;0.80;;;;;;;;;;5014286;28;20033;-61
2023/01/03 02:48:27;;;;;;;3.83;1.00;;;;;;;;;;5024637;28;20041;-62
2023/01/03 02:50:54;;;;;;;2.53;0.80;;;;;;;;;;5029102;28;20021;-61
2023/01/03 02:53:28;;;;;;;3.33;1.00;;;;;;;;;;5030939;28;20017;-61
2023/01/03 02:55:55;;;;;;;3.65;0.90;;;;;;;;;;5026813;28;20065;-61
2023/01/03 02:58:24;;;;;;;3.30;1.20;;;;;;;;;;5015275;28;20564;-61
2023/01/03 03:00:51;;;;;;;3.75;1.10;;;;;;;;;;5015455;28;20469;-61
2023/01/03 03:03:19;;;;;;;3.28;1.08;;;;;;;;;;5029842;28;20024;-60
2023/01/03 03:05:48;;;;;;;4.80;1.20;;;;;;;;;;5028649;28;20091;-61
2023/01/03 03:08:13;;;;;;;4.70;1.27;;;;;;;;;;5013589;28;20520;-61
2023/01/03 03:13:33;;;;;;;3.97;1.10;;;;;;;;;;5016900;28;20056;-61
2023/01/03 03:16:08;;;;;;;4.07;1.02;;;;;;;;;;5020643;28;20021;-61
2023/01/03 03:18:45;;;;;;;3.30;1.10;;;;;;;;;;5018969;28;20038;-62
2023/01/03 03:26:43;;;;;;;2.78;0.80;;;;;;;;;;5011837;28;20079;-60
2023/01/03 03:29:14;;;;;;;3.10;0.90;;;;;;;;;;5016531;28;20034;-60
2023/01/03 03:31:41;;;;;;;2.63;0.85;;;;;;;;;;5023146;28;20549;-60
2023/01/03 03:34:11;;;;;;;2.72;0.93;;;;;;;;;;5028516;28;20021;-61
2023/01/03 03:36:55;;;;;;;3.33;0.90;;;;;;;;;;5021082;28;20504;-61
2023/01/03 03:45:11;;;;;;;3.13;0.85;;;;;;;;;;5030532;28;20117;-62
2023/01/03 03:47:40;;;;;;;1.85;0.70;;;;;;;;;;5028671;28;20022;-61
2023/01/03 03:50:13;;;;;;;3.58;0.90;;;;;;;;;;5015704;28;20040;-62
2023/01/03 03:52:38;;;;;;;;;;;;;;;;;;5029624;28;20029;-62
2023/01/03 03:55:07;;;;;;;2.85;0.80;;;;;;;;;;5029898;28;19963;-61
2023/01/03 03:57:35;;;;;;;2.92;0.93;;;;;;;;;;5029459;28;20025;-61
2023/01/03 04:00:13;;;;;;;3.95;1.20;;;;;;;;;;5016961;28;20028;-61
2023/01/03 04:02:38;;;;;;;2.90;0.82;;;;;;;;;;5029703;28;20024;-60
2023/01/03 04:05:06;;;;;;;2.70;0.80;;;;;;;;;;5027190;28;20026;-59
2023/01/03 04:07:31;;;;;;;2.45;0.82;;;;;;;;;;5026473;28;20080;-60
2023/01/03 04:09:57;;;;;;;3.17;0.70;;;;;;;;;;5010305;28;20421;-60
2023/01/03 04:12:22;;;;;;;2.42;0.90;;;;;;;;;;5010657;28;20088;-59
2023/01/03 04:14:47;;;;;;;2.60;0.70;;;;;;;;;;5018030;28;20407;-61
2023/01/03 04:17:12;;;;;;;2.07;0.70;;;;;;;;;;5017661;28;20397;-61
2023/01/03 04:19:37;;;;;;;4.97;0.83;;;;;;;;;;5024224;28;20033;-61
2023/01/03 04:22:02;;;;;;;2.13;0.60;;;;;;;;;;5021069;28;20014;-61
2023/01/03 04:24:28;;;;;;;2.22;0.55;;;;;;;;;;5028619;28;20026;-61
2023/01/03 04:26:53;;;;;;;1.43;0.50;;;;;;;;;;5018471;28;20369;-61
2023/01/03 04:29:18;;;;;;;2.28;0.60;;;;;;;;;;5009906;28;20025;-61
2023/01/03 04:31:43;;;;;;;3.15;0.70;;;;;;;;;;5023457;28;20021;-61
2023/01/03 04:34:08;;;;;;;2.10;0.60;;;;;;;;;;5020786;28;20116;-62
2023/01/03 04:36:33;;;;;;;2.90;0.70;;;;;;;;;;5020997;28;20076;-61
2023/01/03 04:38:59;;;;;;;2.97;0.70;;;;;;;;;;5017154;28;20384;-62
2023/01/03 04:41:24;;;;;;;3.47;0.70;;;;;;;;;;5015432;28;20065;-62
2023/01/03 04:44:01;;;;;;;2.90;0.65;;;;;;;;;;5015339;28;20377;-61
2023/01/03 04:46:36;;;;;;;2.90;0.70;;;;;;;;;;5011671;28;20372;-61
2023/01/03 04:49:03;;;;;;;3.13;0.70;;;;;;;;;;5014166;28;20099;-61
2023/01/03 04:51:28;;;;;;;1.85;0.70;;;;;;;;;;5026843;28;20115;-63
2023/01/03 04:53:54;;;;;;;2.58;0.70;;;;;;;;;;5030017;28;20075;-62
2023/01/03 04:56:22;;;;;;;2.67;0.60;;;;;;;;;;5022048;28;20498;-61
2023/01/03 04:58:48;;;;;;;2.10;0.50;;;;;;;;;;5026090;28;20025;-62
2023/01/03 05:01:13;;;;;;;2.78;0.75;;;;;;;;;;5025101;28;20032;-62
2023/01/03 05:03:38;;;;;;;2.70;0.80;;;;;;;;;;5022584;28;20030;-64
2023/01/03 05:06:07;;;;;;;1.57;0.60;;;;;;;;;;5008724;28;20460;-62
2023/01/03 05:08:33;;;;;;;1.83;0.70;;;;;;;;;;5024928;28;20025;-62
2023/01/03 05:10:58;;;;;;;3.40;0.60;;;;;;;;;;5021825;28;20036;-62
2023/01/03 05:13:23;;;;;;;1.30;0.60;;;;;;;;;;5028751;28;20061;-62
2023/01/03 05:15:49;;;;;;;1.73;0.63;;;;;;;;;;5020863;28;20029;-61
2023/01/03 05:18:14;;;;;;;2.30;0.70;;;;;;;;;;5030151;28;20025;-61
2023/01/03 05:26:14;;;;;;;3.88;0.90;;;;;;;;;;5024102;28;20028;-61
2023/01/03 05:28:39;;;;;;;;;;;;;;;;;;5025883;28;20061;-61
2023/01/03 05:31:04;;;;;;;1.98;0.70;;;;;;;;;;5025525;28;19955;-61
2023/01/03 05:33:29;;;;;;;2.23;0.70;;;;;;;;;;5025795;28;20087;-61
2023/01/03 05:35:55;;;;;;;1.77;0.60;;;;;;;;;;5025781;28;20025;-60
2023/01/03 05:38:21;;;;;;;6.67;1.00;;;;;;;;;;5023585;28;20029;-61
2023/01/03 05:40:46;;;;;;;3.65;0.70;;;;;;;;;;5007930;28;20022;-62
2023/01/03 05:43:11;;;;;;;2.65;0.60;;;;;;;;;;5018912;28;20444;-61
2023/01/03 05:45:37;;;;;;;2.45;0.68;;;;;;;;;;5018241;28;20030;-60
2023/01/03 05:48:02;;;;;;;2.08;0.70;;;;;;;;;;5019031;28;20025;-60
2023/01/03 05:50:27;;;;;;;3.53;0.82;;;;;;;;;;5012565;28;20053;-63
2023/01/03 05:52:52;;;;;;;2.85;0.80;;;;;;;;;;5013008;28;20017;-62
2023/01/03 05:55:18;;;;;;;2.72;0.80;;;;;;;;;;5011127;28;20114;-61
2023/01/03 05:57:43;;;;;;;3.93;0.83;;;;;;;;;;5021583;28;20113;-61
2023/01/03 06:00:08;;;;;;;2.77;0.80;;;;;;;;;;5022316;28;20471;-62
2023/01/03 06:02:33;;;;;;;2.42;0.70;;;;;;;;;;5014631;28;20030;-61
2023/01/03 06:04:58;;;;;;;2.03;0.70;;;;;;;;;;5029740;28;20112;-60
2023/01/03 06:07:24;;;;;;;3.03;0.85;;;;;;;;;;5012559;28;20037;-60
2023/01/03 06:09:49;;;;;;;2.70;0.93;;;;;;;;;;5015357;28;20850;-60
2023/01/03 06:12:14;;;;;;;2.03;0.70;;;;;;;;;;5019694;28;20155;-61
2023/01/03 06:14:39;;;;;;;2.07;0.67;;;;;;;;;;5010934;28;20060;-61
2023/01/03 06:19:48;;;;;;;;;;;;;;;;;;5030151;28;20084;-61
2023/01/03 06:22:13;;;;;;;2.88;0.80;;;;;;;;;;5028899;28;19913;-61
2023/01/03 06:24:38;;;;;;;3.03;1.00;;;;;;;;;;5022774;28;20021;-61
2023/01/03 06:27:04;;;;;;;2.83;0.90;;;;;;;;;;5032290;28;20033;-61
2023/01/03 06:29:29;;;;;;;2.90;1.00;;;;;;;;;;5032274;28;20330;-61
2023/01/03 06:31:54;;;;;;;3.50;1.17;;;;;;;;;;5032242;28;20021;-61
2023/01/03 06:34:19;;;;;;;4.17;1.23;;;;;;;;;;5030328;28;20080;-61
2023/01/03 06:36:44;;;;;;;3.30;1.20;;;;;;;;;;5032067;28;20032;-61
2023/01/03 06:39:10;;;;;;;4.25;1.20;;;;;;;;;;5032057;28;20469;-60
2023/01/03 06:41:35;;;;;;;3.20;1.10;;;;;;;;;;5032041;28;20021;-64
2023/01/03 06:44:00;;;;;;;4.63;1.27;;;;;;;;;;5031270;28;20053;-61
2023/01/03 06:54:41;;;;;;;3.97;1.40;;;;;;;;;;5031821;28;20397;-62
2023/01/03 06:57:06;;;;;;;4.45;1.30;;;;;;;;;;5032169;28;20021;-62
2023/01/03 06:59:31;;;;;;;2.85;0.98;;;;;;;;;;5023373;28;20044;-62
2023/01/03 07:01:56;;;;;;;2.63;1.00;;;;;;;;;;5015854;28;20052;-62
2023/01/03 07:04:23;;;;;;;4.60;1.20;;;;;;;;;;5012293;28;20037;-62
2023/01/03 07:06:48;;;;;;;3.78;1.10;;;;;;;;;;5011760;28;20524;-61
2023/01/03 07:09:13;;;;;;;7.17;1.73;;;;;;;;;;5014077;28;20520;-62
2023/01/03 07:11:39;;;;;;;4.28;1.30;;;;;;;;;;5025039;28;20037;-62
2023/01/03 07:14:05;;;;;;;3.33;1.25;;;;;;;;;;5029884;28;20504;-60
2023/01/03 07:16:31;;;;;;;3.03;1.20;;;;;;;;;;5027210;28;20112;-61
2023/01/03 07:18:56;;;;;;;4.65;1.30;;;;;;;;;;5031182;28;20025;-64
2023/01/03 07:21:22;;;;;;;5.22;1.38;;;;;;;;;;5018807;28;20052;-61
2023/01/03 07:23:48;;;;;;;4.03;1.40;;;;;;;;;;5018694;28;20028;-61
2023/01/03 07:26:13;;;;;;;3.07;1.20;;;;;;;;;;5026483;28;20026;-61
2023/01/03 07:28:38;;;;;;;3.90;1.23;;;;;;;;;;5030998;28;20029;-61
2023/01/03 07:31:04;;;;;;;5.88;1.70;;;;;;;;;;5020166;28;20025;-61
2023/01/03 07:33:30;;;;;;;4.43;1.70;;;;;;;;;;5023850;28;20114;-62
2023/01/03 07:35:59;;;;;;;4.28;1.60;;;;;;;;;;5011122;28;20131;-60
2023/01/03 07:38:24;;;;;;;4.13;1.60;;;;;;;;;;5015169;28;20484;-63
2023/01/03 07:40:49;;;;;;;4.73;1.53;;;;;;;;;;5023076;28;20041;-60
2023/01/03 07:45:58;;;;;;;5.97;1.63;;;;;;;;;;5017027;28;20538;-61
2023/01/03 07:48:23;;;;;;;5.40;1.90;;;;;;;;;;5030269;28;20030;-61
2023/01/03 07:50:48;;;;;;;4.35;1.75;;;;;;;;;;5030246;28;20017;-61
2023/01/03 07:53:15;;;;;;;6.03;1.63;;;;;;;;;;5030960;28;20025;-61
2023/01/03 07:55:40;;;;;;;;;;;;;;;;;;5031456;28;20469;-61
2023/01/03 07:58:05;;;;;;;4.35;1.65;;;;;;;;;;5030744;28;20419;-60
2023/01/03 08:00:31;;;;;;;4.55;1.77;;;;;;;;;;5027951;28;20041;-60
2023/01/03 08:02:56;;;;;;;5.25;1.83;;;;;;;;;;5030675;28;20037;-60
2023/01/03 08:05:21;;;;;;;5.78;1.90;;;;;;;;;;5031133;28;20542;-60
2023/01/03 08:07:47;;;;;;;5.03;1.88;;;;;;;;;;5030804;28;20022;-61
2023/01/03 08:15:42;;;;;;;5.18;1.90;;;;;;;;;;5011080;28;20041;-61
2023/01/03 08:18:07;;;;;;;5.30;1.90;;;;;;;;;;5010949;28;20385;-60
2023/01/03 08:20:32;;;;;;;6.45;1.80;;;;;;;;;;5011486;28;20021;-60
2023/01/03 08:22:58;;;;;;;4.25;1.75;;;;;;;;;;5011616;28;20069;-60
2023/01/03 08:25:23;;;;;;;4.57;1.75;;;;;;;;;;5010768;28;20026;-60
2023/01/03 08:27:48;;;;;;;5.38;1.52;;;;;;;;;;5010560;28;20020;-60
2023/01/03 08:30:13;;;;;;;5.35;1.80;;;;;;;;;;5026434;28;20046;-60
2023/01/03 08:32:38;;;;;;;3.90;1.77;;;;;;;;;;5030454;28;20021;-60
2023/01/03 08:35:04;;;;;;;6.20;1.97;;;;;;;;;;5030479;28;20072;-60
2023/01/03 08:37:29;;;;;;;6.07;1.95;;;;;;;;;;5030216;28;20087;-60
2023/01/03 08:39:57;;;;;;;8.10;1.70;;;;;;;;;;5028737;28;20034;-61
2023/01/03 08:42:23;;;;;;;4.13;1.65;;;;;;;;;;5014641;28;20025;-61
2023/01/03 08:44:49;;;;;;;5.97;1.63;;;;;;;;;;5014665;28;20060;-61
2023/01/03 08:47:15;;;;;;;5.50;1.48;;;;;;;;;;5014760;28;20029;-62
2023/01/03 08:49:40;;;;;;;5.10;1.67;;;;;;;;;;5014950;28;20029;-62
2023/01/03 08:52:05;;;;;;;4.45;1.67;;;;;;;;;;5017116;28;20521;-62
2023/01/03 08:54:30;;;;;;;4.77;1.50;;;;;;;;;;5014880;28;20076;-62
2023/01/03 08:56:56;;;;;;;4.63;1.77;;;;;;;;;;5014645;28;20022;-60
2023/01/03 08:59:22;;;;;;;5.95;1.67;;;;;;;;;;5032133;28;20022;-61
2023/01/03 09:01:47;;;;;;;4.50;1.50;;;;;;;;;;5030389;28;20457;-61
2023/01/03 09:04:12;;;;;;;4.20;1.67;;;;;;;;;;5014565;28;20076;-60
2023/01/03 09:06:37;;;;;;;4.25;1.63;;;;;;;;;;5014127;28;20040;-61
2023/01/03 09:09:04;;;;;;;4.10;1.55;;;;;;;;;;5031327;28;20026;-60
2023/01/03 09:11:29;;;;;;;5.20;1.70;;;;;;;;;;5033853;28;20017;-61
2023/01/03 09:13:54;;;;;;;4.55;1.70;;;;;;;;;;5025339;28;20042;-61
2023/01/03 09:16:19;;;;;;;4.25;1.35;;;;;;;;;;5034181;28;20030;-61
2023/01/03 09:18:44;;;;;;;3.60;1.50;;;;;;;;;;5033903;28;20112;-61
2023/01/03 09:21:09;;;;;;;5.17;2.17;;;;;;;;;;5033315;28;20084;-61
2023/01/03 09:23:36;;;;;;;5.00;1.50;;;;;;;;;;5025820;28;20223;-61
2023/01/03 09:26:02;;;;;;;4.85;1.70;;;;;;;;;;5033740;28;20045;-61
2023/01/03 09:28:27;;;;;;;5.13;1.80;;;;;;;;;;5033522;28;20486;-61
2023/01/03 09:30:52;;;;;;;3.87;1.30;;;;;;;;;;5033352;28;20221;-61
2023/01/03 09:33:17;;;;;;;5.30;1.73;;;;;;;;;;5033287;28;20028;-61
2023/01/03 09:35:42;;;;;;;4.63;1.70;;;;;;;;;;5025608;28;20054;-61
2023/01/03 09:38:07;;;;;;;6.33;1.50;;;;;;;;;;5013784;28;20029;-61
2023/01/03 09:40:38;;;;;;;4.57;1.30;;;;;;;;;;5013542;28;20030;-61
2023/01/03 09:43:12;;;;;;;5.53;1.65;;;;;;;;;;5013202;28;20022;-61
2023/01/03 09:45:42;;;;;;;4.78;1.70;;;;;;;;;;5013457;28;20097;-61
2023/01/03 09:48:10;;;;;;;5.80;1.58;;;;;;;;;;5015094;28;20376;-61
2023/01/03 09:50:37;;;;;;;3.67;1.58;;;;;;;;;;5013370;28;20022;-61
2023/01/03 10:04:41;;;;;;;4.90;1.50;;;;;;;;;;5013056;28;20044;-61
2023/01/03 10:07:21;;;;;;;4.85;1.27;;;;;;;;;;5013015;28;20049;-61
2023/01/03 10:09:52;;;;;;;3.60;1.30;;;;;;;;;;5013203;28;20041;-61
2023/01/03 10:12:34;;;;;;;5.63;1.30;;;;;;;;;;5013716;28;20488;-61
2023/01/03 10:15:23;;;;;;;3.88;1.10;;;;;;;;;;5012941;28;20105;-61
2023/01/03 10:17:54;;;;;;;3.85;1.30;;;;;;;;;;5012776;28;20018;-61
2023/01/03 10:20:37;;;;;;;4.43;1.30;;;;;;;;;;5013006;28;20026;-61
2023/01/03 10:23:03;;;;;;;3.83;1.33;;;;;;;;;;5013633;28;20446;-60
2023/01/03 10:25:29;;;;;;;4.15;1.35;;;;;;;;;;5031640;28;20022;-61
2023/01/03 10:27:58;;;;;;;5.68;1.30;;;;;;;;;;5032390;28;20096;-61
2023/01/03 10:30:33;;;;;;;5.32;1.30;;;;;;;;;;5031183;28;20032;-61
2023/01/03 10:33:17;;;;;;;6.60;1.60;;;;;;;;;;5032318;28;20026;-61
2023/01/03 10:35:43;;;;;;;3.45;1.10;;;;;;;;;;5014930;28;20105;-61
2023/01/03 10:38:08;;;;;;;3.90;1.30;;;;;;;;;;5018727;28;20104;-61
2023/01/03 10:40:41;;;;;;;4.55;1.23;;;;;;;;;;5031996;28;20025;-61
2023/01/03 10:43:18;;;;;;;5.72;1.20;;;;;;;;;;5032330;28;20029;-61
2023/01/03 10:45:50;;;;;;;2.58;1.02;;;;;;;;;;5031544;28;20033;-61
2023/01/03 10:48:16;;;;;;;3.83;1.23;;;;;;;;;;5012608;28;20431;-61
2023/01/03 10:50:41;;;;;;;3.90;1.30;;;;;;;;;;5012283;28;20105;-61
2023/01/03 10:53:07;;;;;;;4.55;1.33;;;;;;;;;;5012231;28;20029;-61
2023/01/03 10:55:33;;;;;;;4.57;1.30;;;;;;;;;;5018809;28;20030;-61
2023/01/03 10:58:00;;;;;;;3.17;1.30;;;;;;;;;;5031764;28;20017;-61
2023/01/03 11:00:32;;;;;;;4.70;1.30;;;;;;;;;;5016047;28;20032;-61
2023/01/03 11:03:08;;;;;;;5.80;1.30;;;;;;;;;;5012181;28;20030;-61
2023/01/03 11:05:33;;;;;;;6.20;1.30;;;;;;;;;;5010892;28;20030;-61
2023/01/03 11:08:00;;;;;;;3.58;1.17;;;;;;;;;;5011893;28;20072;-61
2023/01/03 11:10:31;;;;;;;4.43;1.00;;;;;;;;;;5013792;28;20022;-61
2023/01/03 11:12:57;;;;;;;2.63;1.00;;;;;;;;;;5011576;28;20050;-61
2023/01/03 11:15:31;;;;;;;3.95;1.30;;;;;;;;;;5011993;28;20388;-60
2023/01/03 11:17:57;;;;;;;3.88;1.20;;;;;;;;;;5011433;28;20053;-61
2023/01/03 11:20:42;;;;;;;3.83;1.10;;;;;;;;;;5013159;28;20029;-61
2023/01/03 11:23:14;;;;;;;3.35;1.30;;;;;;;;;;5011606;28;20057;-60
2023/01/03 11:25:51;;;;;;;3.67;1.13;;;;;;;;;;5011566;28;20029;-61
2023/01/03 11:28:28;;;;;;;5.75;1.10;;;;;;;;;;5011868;28;20025;-61
2023/01/03 11:31:13;;;;;;;4.03;1.15;;;;;;;;;;5031162;28;20454;-62
2023/01/03 11:33:44;;;;;;;3.45;1.02;;;;;;;;;;5021388;28;20029;-60
2023/01/03 11:36:12;;;;;;;7.18;1.40;;;;;;;;;;5021492;28;20036;-61
2023/01/03 11:38:59;;;;;;;4.32;1.10;;;;;;;;;;5030131;28;20071;-61
2023/01/03 11:41:24;;;;;;;7.38;1.55;;;;;;;;;;5031514;28;20055;-61
2023/01/03 11:43:54;;;;;;;3.80;1.33;;;;;;;;;;5031160;28;20043;-61
2023/01/03 11:46:19;;;;;;;4.63;1.20;;;;;;;;;;5027571;28;20544;-62
2023/01/03 11:48:46;;;;;;;3.08;1.10;;;;;;;;;;5031203;28;20551;-61
2023/01/03 11:51:14;;;;;;;3.92;1.00;;;;;;;;;;5030942;28;20029;-61
2023/01/03 11:54:00;;;;;;;3.65;1.20;;;;;;;;;;5030846;28;20112;-61
2023/01/03 11:56:30;;;;;;;3.50;0.90;;;;;;;;;;5030899;28;20030;-61
2023/01/03 11:58:55;;;;;;;2.00;0.80;;;;;;;;;;5028645;28;20131;-62
2023/01/03 12:01:21;;;;;;;3.20;0.90;;;;;;;;;;5031217;28;20029;-61
2023/01/03 12:03:54;;;;;;;3.15;1.10;;;;;;;;;;5030647;28;20372;-61
2023/01/03 12:06:23;;;;;;;2.95;0.90;;;;;;;;;;5031044;28;20025;-61
2023/01/03 12:08:56;;;;;;;3.33;1.20;;;;;;;;;;5030530;28;20060;-61
2023/01/03 12:11:30;;;;;;;2.67;0.80;;;;;;;;;;5023494;28;20440;-61
2023/01/03 12:14:01;;;;;;;2.75;0.80;;;;;;;;;;5010630;28;20401;-62
2023/01/03 12:16:58;;;;;;;3.25;0.80;;;;;;;;;;5010230;28;20029;-61
2023/01/03 12:19:31;;;;;;;2.80;0.70;;;;;;;;;;5012456;28;20801;-61
2023/01/03 12:22:00;;;;;;;2.83;0.80;;;;;;;;;;5010878;28;20571;-61
2023/01/03 12:24:31;;;;;;;2.45;0.70;;;;;;;;;;5011000;28;20025;-61
2023/01/03 12:27:01;;;;;;;2.70;0.70;;;;;;;;;;5010447;28;20478;-61
2023/01/03 12:29:28;;;;;;;3.05;0.60;;;;;;;;;;5014096;28;20029;-61
2023/01/03 12:31:58;;;;;;;2.80;0.80;;;;;;;;;;5030357;28;20033;-61
2023/01/03 12:34:24;;;;;;;2.88;0.80;;;;;;;;;;5030602;28;20116;-61
2023/01/03 12:37:12;;;;;;;5.60;0.93;;;;;;;;;;5030548;28;20108;-61
2023/01/03 12:39:43;;;;;;;2.15;0.60;;;;;;;;;;5029597;28;20140;-61
2023/01/03 12:42:16;;;;;;;2.08;0.70;;;;;;;;;;5028388;28;20045;-60
2023/01/03 12:44:43;;;;;;;2.28;0.60;;;;;;;;;;5030787;28;20076;-61
2023/01/03 12:47:15;;;;;;;4.18;0.77;;;;;;;;;;5030368;28;20104;-60
2023/01/03 12:49:43;;;;;;;2.72;0.70;;;;;;;;;;5030595;28;20025;-60
2023/01/03 12:52:12;;;;;;;4.65;0.70;;;;;;;;;;5027852;28;20037;-60
2023/01/03 12:54:45;;;;;;;1.80;0.60;;;;;;;;;;5010508;28;20501;-60
2023/01/03 12:57:10;;;;;;;;;;;;;;;;;;5010859;28;20080;-60
2023/01/03 12:59:52;;;;;;;3.45;0.80;;;;;;;;;;5011006;28;19910;-60
2023/01/03 13:02:23;;;;;;;3.72;0.80;;;;;;;;;;5010297;28;20117;-60
2023/01/03 13:04:50;;;;;;;2.35;0.50;;;;;;;;;;5013668;28;20044;-61
2023/01/03 13:07:18;;;;;;;1.35;0.50;;;;;;;;;;5010166;28;20096;-61
2023/01/03 13:09:46;;;;;;;4.10;0.70;;;;;;;;;;5011003;28;20037;-60
2023/01/03 13:12:16;;;;;;;3.10;0.70;;;;;;;;;;5010366;28;20419;-61
2023/01/03 13:14:55;;;;;;;3.45;0.50;;;;;;;;;;5010266;28;20488;-61
2023/01/03 13:17:21;;;;;;;2.53;0.63;;;;;;;;;;5012173;28;20026;-61
2023/01/03 13:19:56;;;;;;;1.50;0.50;;;;;;;;;;5010252;28;20469;-62
2023/01/03 13:22:32;;;;;;;1.95;0.70;;;;;;;;;;5010528;28;20022;-63
2023/01/03 13:25:17;;;;;;;4.13;0.60;;;;;;;;;;5010197;28;20034;-63
2023/01/03 13:27:49;;;;;;;3.60;0.60;;;;;;;;;;5010233;28;20026;-63
2023/01/03 13:30:19;;;;;;;3.22;0.60;;;;;;;;;;5016412;28;20045;-62
2023/01/03 13:32:46;;;;;;;3.15;0.60;;;;;;;;;;5013860;28;20492;-62
2023/01/03 13:35:32;;;;;;;5.03;0.68;;;;;;;;;;5013658;28;20113;-62
2023/01/03 13:37:59;;;;;;;2.80;0.98;;;;;;;;;;5022650;28;20044;-61
2023/01/03 13:40:25;;;;;;;2.78;0.60;;;;;;;;;;5031986;28;20124;-62
2023/01/03 13:43:20;;;;;;;3.20;0.68;;;;;;;;;;5033182;28;20520;-62
2023/01/03 13:45:45;;;;;;;3.30;0.70;;;;;;;;;;5031349;28;20033;-62
2023/01/03 13:48:24;;;;;;;3.83;0.70;;;;;;;;;;5033142;28;20052;-62
2023/01/03 13:51:03;;;;;;;3.38;0.80;;;;;;;;;;5020653;28;20406;-60
2023/01/03 13:53:29;;;;;;;3.10;0.60;;;;;;;;;;5033108;28;20057;-60
2023/01/03 13:55:59;;;;;;;1.83;0.52;;;;;;;;;;5033177;28;20029;-60
2023/01/03 13:58:31;;;;;;;2.88;0.50;;;;;;;;;;5032111;28;20029;-60
2023/01/03 14:01:02;;;;;;;3.05;0.57;;;;;;;;;;5032903;28;20049;-61
2023/01/03 14:03:36;;;;;;;2.35;0.47;;;;;;;;;;5033254;28;20021;-60
2023/01/03 14:06:07;;;;;;;2.85;0.70;;;;;;;;;;5033091;28;20044;-61
2023/01/03 14:08:35;;;;;;;2.72;0.57;;;;;;;;;;5032238;28;20028;-61
2023/01/03 14:11:11;;;;;;;3.20;0.80;;;;;;;;;;5032816;28;20013;-61
2023/01/03 14:13:39;;;;;;;2.53;0.70;;;;;;;;;;5032681;28;20120;-61
2023/01/03 14:16:22;;;;;;;3.40;0.90;;;;;;;;;;5032416;28;20021;-61
2023/01/03 14:19:01;;;;;;;5.00;1.02;;;;;;;;;;5032887;28;22364;-61
2023/01/03 14:21:36;;;;;;;2.83;0.70;;;;;;;;;;5030611;28;20018;-61
2023/01/03 14:24:02;;;;;;;3.08;0.70;;;;;;;;;;5032825;28;20112;-62
2023/01/03 14:26:30;;;;;;;3.03;1.00;;;;;;;;;;5031549;28;20468;-60
2023/01/03 14:28:55;;;;;;;3.05;0.80;;;;;;;;;;5032573;28;20036;-64
2023/01/03 14:31:25;;;;;;;4.57;1.33;;;;;;;;;;5032898;28;20030;-60
2023/01/03 14:33:55;;;;;;;2.95;0.80;;;;;;;;;;5032490;28;20063;-64
2023/01/03 14:36:20;;;;;;;2.63;0.77;;;;;;;;;;5028054;28;20479;-61
2023/01/03 14:38:56;;;;;;;5.60;0.90;;;;;;;;;;5011893;28;20084;-61
2023/01/03 14:41:21;;;;;;;2.03;0.68;;;;;;;;;;5012719;28;20021;-61
2023/01/03 14:43:46;;;;;;;2.92;0.80;;;;;;;;;;5012646;28;20018;-61
2023/01/03 14:46:11;;;;;;;5.07;0.90;;;;;;;;;;5012301;28;20033;-60
2023/01/03 14:48:37;;;;;;;2.73;0.80;;;;;;;;;;5012961;28;20473;-61
2023/01/03 14:51:03;;;;;;;3.15;0.80;;;;;;;;;;5028517;28;20010;-62
2023/01/03 14:53:28;;;;;;;4.57;0.90;;;;;;;;;;5032527;28;20024;-61
2023/01/03 14:55:54;;;;;;;4.40;1.20;;;;;;;;;;5031572;28;20033;-61
2023/01/03 14:58:36;;;;;;;3.30;1.00;;;;;;;;;;5029496;28;20017;-61
2023/01/03 15:01:03;;;;;;;2.95;0.90;;;;;;;;;;5023179;28;20022;-61
2023/01/03 15:03:30;;;;;;;4.10;0.90;;;;;;;;;;5025290;28;20384;-62
2023/01/03 15:05:59;;;;;;;3.58;0.80;;;;;;;;;;5018942;28;20076;-60
2023/01/03 15:08:26;;;;;;;3.13;0.70;;;;;;;;;;5025361;28;20094;-60
2023/01/03 15:10:52;;;;;;;3.38;0.90;;;;;;;;;;5030882;28;20024;-61
2023/01/03 15:13:20;;;;;;;3.70;1.02;;;;;;;;;;5020117;28;20057;-61
2023/01/03 15:15:51;;;;;;;3.22;1.00;;;;;;;;;;5023671;28;20025;-62
2023/01/03 15:18:16;;;;;;;4.03;1.05;;;;;;;;;;5023341;28;20112;-61
2023/01/03 15:20:42;;;;;;;3.67;1.03;;;;;;;;;;5020030;28;20080;-61
2023/01/03 15:23:23;;;;;;;4.43;1.10;;;;;;;;;;5030823;28;20472;-61
2023/01/03 15:25:48;;;;;;;4.90;1.38;;;;;;;;;;5026053;28;20021;-61
2023/01/03 15:28:19;;;;;;;5.83;1.60;;;;;;;;;;5021747;28;20112;-62
2023/01/03 15:30:46;;;;;;;3.95;1.33;;;;;;;;;;5012602;28;20105;-62
2023/01/03 15:33:20;;;;;;;4.85;1.13;;;;;;;;;;5018741;28;20033;-61
2023/01/03 15:35:46;;;;;;;4.63;1.50;;;;;;;;;;5024354;28;20499;-61
2023/01/03 15:38:22;;;;;;;6.90;1.60;;;;;;;;;;5016583;28;20038;-61
2023/01/03 15:40:47;;;;;;;6.25;1.52;;;;;;;;;;5010898;28;20022;-61
2023/01/03 15:43:23;;;;;;;5.97;1.40;;;;;;;;;;5020230;28;20029;-61
2023/01/03 15:46:07;;;;;;;4.72;1.30;;;;;;;;;;5029708;28;20048;-60
2023/01/03 15:48:35;;;;;;;4.95;1.33;;;;;;;;;;5025082;28;20013;-60
2023/01/03 15:51:01;;;;;;;5.85;1.40;;;;;;;;;;5025803;28;20028;-61